sensor_id;sensor_type;location;lat;lon;timestamp;pressure;altitude;pressure_sealevel;temperature;humidity
47726;BME280;33483;48.294;16.388;2024-03-17T00:00:41;100104.69;;;9.67;100.00
47726;BME280;33483;48.294;16.388;2024-03-17T00:03:32;100105.97;;;9.60;100.00
47726;BME280;33483;48.294;16.388;2024-03-17T00:05:59;100103.22;;;9.55;100.00
47726;BME280;33483;48.294;16.388;2024-03-17T00:08:28;100094.91;;;9.49;100.00
47726;BME280;33483;48.294;16.388;2024-03-17T00:10:54;100100.72;;;9.46;100.00
47726;BME280;33483;48.294;16.388;2024-03-17T00:13:23;100098.47;;;9.39;100.00
47726;BME280;33483;48.294;16.388;2024-03-17T00:15:50;100102.75;;;9.29;100.00
47726;BME280;33483;48.294;16.388;2024-03-17T00:18:16;100095.47;;;9.15;100.00
47726;BME280;33483;48.294;16.388;2024-03-17T00:20:42;100092.97;;;9.05;100.00
47726;BME280;33483;48.294;16.388;2024-03-17T00:23:09;100094.75;;;8.97;100.00
47726;BME280;33483;48.294;16.388;2024-03-17T00:25:38;100091.47;;;8.93;100.00
47726;BME280;33483;48.294;16.388;2024-03-17T00:28:04;100085.69;;;8.80;100.00
47726;BME280;33483;48.294;16.388;2024-03-17T00:30:30;100097.75;;;8.77;100.00
47726;BME280;33483;48.294;16.388;2024-03-17T00:32:59;100090.22;;;8.78;100.00
47726;BME280;33483;48.294;16.388;2024-03-17T00:35:26;100093.75;;;8.78;100.00
47726;BME280;33483;48.294;16.388;2024-03-17T00:37:52;100099.25;;;8.67;100.00
47726;BME280;33483;48.294;16.388;2024-03-17T00:40:19;100098.72;;;8.52;100.00
47726;BME280;33483;48.294;16.388;2024-03-17T00:42:45;100095.69;;;8.45;100.00
47726;BME280;33483;48.294;16.388;2024-03-17T00:45:12;100090.41;;;8.41;100.00
47726;BME280;33483;48.294;16.388;2024-03-17T00:47:38;100095.19;;;8.46;100.00
47726;BME280;33483;48.294;16.388;2024-03-17T00:50:07;100103.50;;;8.52;100.00
47726;BME280;33483;48.294;16.388;2024-03-17T00:52:37;100093.22;;;8.52;100.00
47726;BME280;33483;48.294;16.388;2024-03-17T00:55:03;100104.25;;;8.52;100.00
47726;BME280;33483;48.294;16.388;2024-03-17T00:57:31;100100.00;;;8.62;100.00
47726;BME280;33483;48.294;16.388;2024-03-17T00:59:58;100106.03;;;8.66;100.00
47726;BME280;33483;48.294;16.388;2024-03-17T01:02:26;100109.03;;;8.74;100.00
47726;BME280;33483;48.294;16.388;2024-03-17T01:04:52;100116.09;;;8.86;100.00
47726;BME280;33483;48.294;16.388;2024-03-17T01:07:18;100124.13;;;8.95;100.00
47726;BME280;33483;48.294;16.388;2024-03-17T01:09:46;100119.88;;;8.99;100.00
47726;BME280;33483;48.294;16.388;2024-03-17T01:12:12;100107.81;;;9.02;100.00
47726;BME280;33483;48.294;16.388;2024-03-17T01:14:39;100109.56;;;9.05;100.00
47726;BME280;33483;48.294;16.388;2024-03-17T01:17:05;100119.09;;;9.10;100.00
47726;BME280;33483;48.294;16.388;2024-03-17T01:19:31;100122.38;;;9.08;100.00
47726;BME280;33483;48.294;16.388;2024-03-17T01:22:00;100119.59;;;9.14;100.00
47726;BME280;33483;48.294;16.388;2024-03-17T01:24:26;100128.16;;;9.22;100.00
47726;BME280;33483;48.294;16.388;2024-03-17T01:26:57;100139.72;;;9.26;100.00
47726;BME280;33483;48.294;16.388;2024-03-17T01:29:24;100150.03;;;9.31;100.00
47726;BME280;33483;48.294;16.388;2024-03-17T01:31:51;100148.25;;;9.33;100.00
47726;BME280;33483;48.294;16.388;2024-03-17T01:34:20;100160.09;;;9.34;100.00
47726;BME280;33483;48.294;16.388;2024-03-17T01:36:49;100153.28;;;9.35;100.00
47726;BME280;33483;48.294;16.388;2024-03-17T01:39:15;100160.84;;;9.34;100.00
47726;BME280;33483;48.294;16.388;2024-03-17T01:41:42;100168.38;;;9.28;100.00
47726;BME280;33483;48.294;16.388;2024-03-17T01:44:11;100172.41;;;9.22;100.00
47726;BME280;33483;48.294;16.388;2024-03-17T01:46:47;100167.88;;;9.19;100.00
47726;BME280;33483;48.294;16.388;2024-03-17T01:49:13;100176.94;;;9.02;100.00
47726;BME280;33483;48.294;16.388;2024-03-17T01:51:39;100180.41;;;8.86;100.00
47726;BME280;33483;48.294;16.388;2024-03-17T01:54:06;100179.16;;;8.76;100.00
47726;BME280;33483;48.294;16.388;2024-03-17T01:56:32;100172.59;;;8.68;100.00
47726;BME280;33483;48.294;16.388;2024-03-17T01:58:59;100175.06;;;8.55;100.00
47726;BME280;33483;48.294;16.388;2024-03-17T02:01:27;100173.78;;;8.51;100.00
47726;BME280;33483;48.294;16.388;2024-03-17T02:03:53;100180.06;;;8.40;100.00
47726;BME280;33483;48.294;16.388;2024-03-17T02:06:19;100188.09;;;8.38;100.00
47726;BME280;33483;48.294;16.388;2024-03-17T02:08:46;100196.34;;;8.33;100.00
47726;BME280;33483;48.294;16.388;2024-03-17T02:11:23;100189.53;;;8.28;100.00
47726;BME280;33483;48.294;16.388;2024-03-17T02:13:50;100191.28;;;8.26;100.00
47726;BME280;33483;48.294;16.388;2024-03-17T02:16:16;100192.25;;;8.23;100.00
47726;BME280;33483;48.294;16.388;2024-03-17T02:18:42;100196.22;;;8.11;100.00
47726;BME280;33483;48.294;16.388;2024-03-17T02:21:10;100195.47;;;8.10;100.00
47726;BME280;33483;48.294;16.388;2024-03-17T02:23:36;100196.19;;;8.05;100.00
47726;BME280;33483;48.294;16.388;2024-03-17T02:26:02;100200.16;;;7.98;100.00
47726;BME280;33483;48.294;16.388;2024-03-17T02:28:28;100197.88;;;7.97;100.00
47726;BME280;33483;48.294;16.388;2024-03-17T02:30:54;100204.91;;;7.92;100.00
47726;BME280;33483;48.294;16.388;2024-03-17T02:33:21;100212.38;;;7.81;100.00
47726;BME280;33483;48.294;16.388;2024-03-17T02:35:48;100213.81;;;7.76;100.00
47726;BME280;33483;48.294;16.388;2024-03-17T02:38:17;100210.31;;;7.76;100.00
47726;BME280;33483;48.294;16.388;2024-03-17T02:41:06;100210.03;;;7.68;100.00
47726;BME280;33483;48.294;16.388;2024-03-17T02:43:33;100211.75;;;7.66;100.00
47726;BME280;33483;48.294;16.388;2024-03-17T02:45:58;100216.22;;;7.58;100.00
47726;BME280;33483;48.294;16.388;2024-03-17T02:48:25;100220.22;;;7.57;100.00
47726;BME280;33483;48.294;16.388;2024-03-17T02:50:51;100225.22;;;7.53;100.00
47726;BME280;33483;48.294;16.388;2024-03-17T02:53:18;100223.72;;;7.57;100.00
47726;BME280;33483;48.294;16.388;2024-03-17T02:55:47;100219.69;;;7.53;100.00
47726;BME280;33483;48.294;16.388;2024-03-17T02:58:13;100231.91;;;7.46;100.00
47726;BME280;33483;48.294;16.388;2024-03-17T03:00:39;100231.63;;;7.39;100.00
47726;BME280;33483;48.294;16.388;2024-03-17T03:03:06;100238.09;;;7.36;100.00
47726;BME280;33483;48.294;16.388;2024-03-17T03:05:32;100239.34;;;7.35;100.00
47726;BME280;33483;48.294;16.388;2024-03-17T03:08:01;100239.34;;;7.35;100.00
47726;BME280;33483;48.294;16.388;2024-03-17T03:10:27;100240.84;;;7.36;100.00
47726;BME280;33483;48.294;16.388;2024-03-17T03:12:53;100232.56;;;7.36;100.00
47726;BME280;33483;48.294;16.388;2024-03-17T03:15:19;100235.09;;;7.34;100.00
47726;BME280;33483;48.294;16.388;2024-03-17T03:17:46;100233.56;;;7.33;100.00
47726;BME280;33483;48.294;16.388;2024-03-17T03:20:12;100229.81;;;7.36;100.00
47726;BME280;33483;48.294;16.388;2024-03-17T03:22:38;100224.78;;;7.34;100.00
47726;BME280;33483;48.294;16.388;2024-03-17T03:25:04;100232.53;;;7.30;100.00
47726;BME280;33483;48.294;16.388;2024-03-17T03:27:30;100235.03;;;7.28;100.00
47726;BME280;33483;48.294;16.388;2024-03-17T03:29:56;100230.00;;;7.27;100.00
47726;BME280;33483;48.294;16.388;2024-03-17T03:32:22;100239.44;;;7.20;100.00
47726;BME280;33483;48.294;16.388;2024-03-17T03:34:48;100245.19;;;7.17;100.00
47726;BME280;33483;48.294;16.388;2024-03-17T03:37:14;100255.19;;;7.14;100.00
47726;BME280;33483;48.294;16.388;2024-03-17T03:39:41;100264.66;;;7.08;100.00
47726;BME280;33483;48.294;16.388;2024-03-17T03:42:07;100266.88;;;7.04;100.00
47726;BME280;33483;48.294;16.388;2024-03-17T03:44:33;100264.59;;;7.02;100.00
47726;BME280;33483;48.294;16.388;2024-03-17T03:46:59;100264.25;;;6.95;100.00
47726;BME280;33483;48.294;16.388;2024-03-17T03:49:27;100268.53;;;6.96;100.00
47726;BME280;33483;48.294;16.388;2024-03-17T03:51:54;100271.31;;;6.96;100.00
47726;BME280;33483;48.294;16.388;2024-03-17T03:54:20;100264.25;;;6.95;100.00
47726;BME280;33483;48.294;16.388;2024-03-17T03:56:46;100272.94;;;6.88;100.00
47726;BME280;33483;48.294;16.388;2024-03-17T03:59:12;100268.56;;;6.75;100.00
47726;BME280;33483;48.294;16.388;2024-03-17T04:01:38;100260.91;;;6.65;100.00
47726;BME280;33483;48.294;16.388;2024-03-17T04:04:05;100253.78;;;6.53;100.00
47726;BME280;33483;48.294;16.388;2024-03-17T04:06:31;100257.34;;;6.39;100.00
47726;BME280;33483;48.294;16.388;2024-03-17T04:08:57;100257.69;;;6.26;100.00
47726;BME280;33483;48.294;16.388;2024-03-17T04:11:24;100249.09;;;6.19;100.00
47726;BME280;33483;48.294;16.388;2024-03-17T04:13:52;100258.69;;;6.09;100.00
47726;BME280;33483;48.294;16.388;2024-03-17T04:16:18;100255.03;;;5.97;100.00
47726;BME280;33483;48.294;16.388;2024-03-17T04:18:44;100263.19;;;5.92;100.00
47726;BME280;33483;48.294;16.388;2024-03-17T04:21:11;100263.59;;;5.85;100.00
47726;BME280;33483;48.294;16.388;2024-03-17T04:23:37;100270.50;;;5.80;100.00
47726;BME280;33483;48.294;16.388;2024-03-17T04:26:05;100271.56;;;5.68;100.00
47726;BME280;33483;48.294;16.388;2024-03-17T04:28:37;100272.44;;;5.59;100.00
47726;BME280;33483;48.294;16.388;2024-03-17T04:31:07;100264.19;;;5.45;100.00
47726;BME280;33483;48.294;16.388;2024-03-17T04:33:34;100268.28;;;5.35;100.00
47726;BME280;33483;48.294;16.388;2024-03-17T04:36:00;100267.13;;;5.27;100.00
47726;BME280;33483;48.294;16.388;2024-03-17T04:38:28;100261.53;;;5.21;100.00
47726;BME280;33483;48.294;16.388;2024-03-17T04:40:54;100265.13;;;5.13;100.00
47726;BME280;33483;48.294;16.388;2024-03-17T04:43:31;100259.81;;;5.09;100.00
47726;BME280;33483;48.294;16.388;2024-03-17T04:46:01;100265.97;;;5.04;100.00
47726;BME280;33483;48.294;16.388;2024-03-17T04:48:29;100261.03;;;4.94;100.00
47726;BME280;33483;48.294;16.388;2024-03-17T04:50:55;100275.34;;;4.98;100.00
47726;BME280;33483;48.294;16.388;2024-03-17T04:53:22;100269.97;;;5.03;100.00
47726;BME280;33483;48.294;16.388;2024-03-17T04:55:48;100272.72;;;5.03;100.00
47726;BME280;33483;48.294;16.388;2024-03-17T04:58:14;100280.00;;;5.06;100.00
47726;BME280;33483;48.294;16.388;2024-03-17T05:00:40;100275.84;;;5.11;100.00
47726;BME280;33483;48.294;16.388;2024-03-17T05:03:06;100280.88;;;5.12;100.00
47726;BME280;33483;48.294;16.388;2024-03-17T05:05:33;100282.38;;;5.13;100.00
47726;BME280;33483;48.294;16.388;2024-03-17T05:07:59;100285.53;;;5.21;100.00
47726;BME280;33483;48.294;16.388;2024-03-17T05:10:25;100283.13;;;5.28;100.00
47726;BME280;33483;48.294;16.388;2024-03-17T05:12:51;100286.19;;;5.30;100.00
47726;BME280;33483;48.294;16.388;2024-03-17T05:15:17;100282.69;;;5.30;100.00
47726;BME280;33483;48.294;16.388;2024-03-17T05:17:43;100288.44;;;5.32;100.00
47726;BME280;33483;48.294;16.388;2024-03-17T05:20:10;100287.34;;;5.38;100.00
47726;BME280;33483;48.294;16.388;2024-03-17T05:22:36;100283.16;;;5.43;100.00
47726;BME280;33483;48.294;16.388;2024-03-17T05:25:02;100296.81;;;5.52;100.00
47726;BME280;33483;48.294;16.388;2024-03-17T05:27:28;100293.47;;;5.48;100.00
47726;BME280;33483;48.294;16.388;2024-03-17T05:29:54;100297.19;;;5.45;100.00
47726;BME280;33483;48.294;16.388;2024-03-17T05:32:20;100296.41;;;5.44;100.00
47726;BME280;33483;48.294;16.388;2024-03-17T05:34:46;100297.66;;;5.43;100.00
47726;BME280;33483;48.294;16.388;2024-03-17T05:37:13;100308.81;;;5.54;100.00
47726;BME280;33483;48.294;16.388;2024-03-17T05:39:39;100317.16;;;5.60;100.00
47726;BME280;33483;48.294;16.388;2024-03-17T05:42:05;100316.16;;;5.57;100.00
47726;BME280;33483;48.294;16.388;2024-03-17T05:44:31;100316.81;;;5.52;100.00
47726;BME280;33483;48.294;16.388;2024-03-17T05:47:16;100320.31;;;5.53;100.00
47726;BME280;33483;48.294;16.388;2024-03-17T05:49:42;100331.28;;;5.53;100.00
47726;BME280;33483;48.294;16.388;2024-03-17T05:52:08;100327.78;;;5.67;100.00
47726;BME280;33483;48.294;16.388;2024-03-17T05:54:34;100338.50;;;6.09;100.00
47726;BME280;33483;48.294;16.388;2024-03-17T05:57:01;100344.38;;;6.16;100.00
47726;BME280;33483;48.294;16.388;2024-03-17T05:59:30;100346.03;;;6.28;100.00
47726;BME280;33483;48.294;16.388;2024-03-17T06:01:59;100342.78;;;6.44;100.00
47726;BME280;33483;48.294;16.388;2024-03-17T06:04:25;100348.97;;;6.59;100.00
47726;BME280;33483;48.294;16.388;2024-03-17T06:06:54;100339.91;;;6.73;100.00
47726;BME280;33483;48.294;16.388;2024-03-17T06:09:20;100351.34;;;6.87;100.00
47726;BME280;33483;48.294;16.388;2024-03-17T06:11:46;100340.78;;;7.05;100.00
47726;BME280;33483;48.294;16.388;2024-03-17T06:14:12;100344.75;;;7.24;100.00
47726;BME280;33483;48.294;16.388;2024-03-17T06:16:39;100342.41;;;7.37;100.00
47726;BME280;33483;48.294;16.388;2024-03-17T06:19:05;100347.31;;;7.53;100.00
47726;BME280;33483;48.294;16.388;2024-03-17T06:21:33;100347.16;;;7.62;100.00
47726;BME280;33483;48.294;16.388;2024-03-17T06:23:59;100348.63;;;7.58;100.00
47726;BME280;33483;48.294;16.388;2024-03-17T06:26:25;100347.97;;;7.68;100.00
47726;BME280;33483;48.294;16.388;2024-03-17T06:28:55;100346.75;;;7.75;100.00
47726;BME280;33483;48.294;16.388;2024-03-17T06:31:22;100343.00;;;7.78;100.00
47726;BME280;33483;48.294;16.388;2024-03-17T06:33:48;100344.50;;;7.73;99.75
47726;BME280;33483;48.294;16.388;2024-03-17T06:36:17;100345.59;;;7.87;98.96
47726;BME280;33483;48.294;16.388;2024-03-17T06:38:43;100351.66;;;7.91;98.87
47726;BME280;33483;48.294;16.388;2024-03-17T06:41:09;100351.72;;;7.96;97.02
47726;BME280;33483;48.294;16.388;2024-03-17T06:43:36;100352.31;;;8.12;95.05
47726;BME280;33483;48.294;16.388;2024-03-17T06:46:02;100350.25;;;8.01;94.71
47726;BME280;33483;48.294;16.388;2024-03-17T06:48:30;100350.94;;;7.96;96.00
47726;BME280;33483;48.294;16.388;2024-03-17T06:50:56;100352.22;;;8.26;90.08
47726;BME280;33483;48.294;16.388;2024-03-17T06:53:23;100363.31;;;8.37;90.02
47726;BME280;33483;48.294;16.388;2024-03-17T06:55:58;100359.00;;;8.31;88.83
47726;BME280;33483;48.294;16.388;2024-03-17T06:58:26;100358.25;;;8.30;89.72
47726;BME280;33483;48.294;16.388;2024-03-17T07:00:54;100362.00;;;8.27;91.80
47726;BME280;33483;48.294;16.388;2024-03-17T07:03:22;100363.78;;;8.30;90.43
47726;BME280;33483;48.294;16.388;2024-03-17T07:06:00;100366.75;;;8.27;90.17
47726;BME280;33483;48.294;16.388;2024-03-17T07:08:34;100364.03;;;8.32;90.74
47726;BME280;33483;48.294;16.388;2024-03-17T07:11:03;100363.09;;;8.41;85.53
47726;BME280;33483;48.294;16.388;2024-03-17T07:13:35;100371.88;;;8.39;85.61
47726;BME280;33483;48.294;16.388;2024-03-17T07:16:01;100372.28;;;8.63;85.87
47726;BME280;33483;48.294;16.388;2024-03-17T07:18:30;100381.09;;;8.67;82.44
47726;BME280;33483;48.294;16.388;2024-03-17T07:20:57;100381.41;;;9.39;74.52
47726;BME280;33483;48.294;16.388;2024-03-17T07:23:24;100384.78;;;10.32;67.00
47726;BME280;33483;48.294;16.388;2024-03-17T07:25:51;100391.22;;;10.84;63.96
47726;BME280;33483;48.294;16.388;2024-03-17T07:28:20;100383.06;;;12.00;60.68
47726;BME280;33483;48.294;16.388;2024-03-17T07:30:53;100393.13;;;12.33;55.77
47726;BME280;33483;48.294;16.388;2024-03-17T07:33:20;100390.38;;;11.63;57.15
47726;BME280;33483;48.294;16.388;2024-03-17T07:35:50;100393.97;;;11.93;57.03
47726;BME280;33483;48.294;16.388;2024-03-17T07:38:16;100402.63;;;12.43;55.50
47726;BME280;33483;48.294;16.388;2024-03-17T07:40:43;100397.28;;;12.21;55.02
47726;BME280;33483;48.294;16.388;2024-03-17T07:43:09;100403.16;;;14.07;50.15
47726;BME280;33483;48.294;16.388;2024-03-17T07:45:35;100412.06;;;13.87;50.88
47726;BME280;33483;48.294;16.388;2024-03-17T07:48:01;100413.88;;;14.34;48.58
47726;BME280;33483;48.294;16.388;2024-03-17T07:50:27;100416.41;;;14.90;47.01
47726;BME280;33483;48.294;16.388;2024-03-17T07:52:56;100425.53;;;15.90;44.96
47726;BME280;33483;48.294;16.388;2024-03-17T07:55:22;100420.28;;;15.73;43.62
47726;BME280;33483;48.294;16.388;2024-03-17T07:57:48;100412.78;;;14.95;45.81
47726;BME280;33483;48.294;16.388;2024-03-17T08:00:17;100400.34;;;13.75;48.02
47726;BME280;33483;48.294;16.388;2024-03-17T08:02:46;100404.25;;;13.67;48.99
47726;BME280;33483;48.294;16.388;2024-03-17T08:05:12;100398.22;;;13.25;48.66
47726;BME280;33483;48.294;16.388;2024-03-17T08:07:39;100397.50;;;13.25;49.04
47726;BME280;33483;48.294;16.388;2024-03-17T08:10:10;100402.81;;;12.51;49.57
47726;BME280;33483;48.294;16.388;2024-03-17T08:12:36;100407.03;;;12.33;50.13
47726;BME280;33483;48.294;16.388;2024-03-17T08:15:05;100395.72;;;12.55;50.07
47726;BME280;33483;48.294;16.388;2024-03-17T08:17:31;100406.94;;;12.68;50.18
47726;BME280;33483;48.294;16.388;2024-03-17T08:19:57;100404.72;;;12.37;48.27
47726;BME280;33483;48.294;16.388;2024-03-17T08:22:24;100400.13;;;12.93;48.28
47726;BME280;33483;48.294;16.388;2024-03-17T08:24:50;100399.03;;;13.76;45.63
47726;BME280;33483;48.294;16.388;2024-03-17T08:27:16;100396.97;;;14.14;43.95
47726;BME280;33483;48.294;16.388;2024-03-17T08:29:44;100393.34;;;14.00;44.38
47726;BME280;33483;48.294;16.388;2024-03-17T08:32:10;100403.50;;;14.16;44.11
47726;BME280;33483;48.294;16.388;2024-03-17T08:34:36;100402.13;;;13.17;44.94
47726;BME280;33483;48.294;16.388;2024-03-17T08:37:03;100391.75;;;12.45;47.00
47726;BME280;33483;48.294;16.388;2024-03-17T08:39:31;100385.78;;;12.35;47.42
47726;BME280;33483;48.294;16.388;2024-03-17T08:41:58;100393.44;;;12.24;47.32
47726;BME280;33483;48.294;16.388;2024-03-17T08:44:24;100397.06;;;12.43;46.39
47726;BME280;33483;48.294;16.388;2024-03-17T08:46:50;100391.91;;;12.28;46.16
47726;BME280;33483;48.294;16.388;2024-03-17T08:49:17;100388.38;;;11.98;47.13
47726;BME280;33483;48.294;16.388;2024-03-17T08:51:43;100383.91;;;12.19;48.20
47726;BME280;33483;48.294;16.388;2024-03-17T08:54:09;100371.00;;;12.22;48.52
47726;BME280;33483;48.294;16.388;2024-03-17T08:56:35;100384.50;;;11.72;46.95
47726;BME280;33483;48.294;16.388;2024-03-17T08:59:02;100386.81;;;11.62;47.73
47726;BME280;33483;48.294;16.388;2024-03-17T09:01:28;100382.50;;;11.26;48.71
47726;BME280;33483;48.294;16.388;2024-03-17T09:03:54;100381.19;;;11.32;49.14
47726;BME280;33483;48.294;16.388;2024-03-17T09:06:22;100376.22;;;11.14;51.43
47726;BME280;33483;48.294;16.388;2024-03-17T09:08:48;100381.47;;;11.23;51.22
47726;BME280;33483;48.294;16.388;2024-03-17T09:11:15;100373.13;;;11.29;50.67
47726;BME280;33483;48.294;16.388;2024-03-17T09:13:41;100374.97;;;11.15;51.33
47726;BME280;33483;48.294;16.388;2024-03-17T09:16:07;100373.31;;;10.85;51.67
47726;BME280;33483;48.294;16.388;2024-03-17T09:18:36;100366.44;;;11.02;54.25
47726;BME280;33483;48.294;16.388;2024-03-17T09:21:04;100364.53;;;11.32;52.36
47726;BME280;33483;48.294;16.388;2024-03-17T09:23:31;100357.25;;;11.70;50.64
47726;BME280;33483;48.294;16.388;2024-03-17T09:26:09;100369.34;;;11.78;50.46
47726;BME280;33483;48.294;16.388;2024-03-17T09:28:36;100366.75;;;11.86;51.37
47726;BME280;33483;48.294;16.388;2024-03-17T09:31:03;100361.06;;;12.02;50.74
47726;BME280;33483;48.294;16.388;2024-03-17T09:33:33;100361.53;;;11.77;51.67
47726;BME280;33483;48.294;16.388;2024-03-17T09:38:26;100351.28;;;12.25;52.09
47726;BME280;33483;48.294;16.388;2024-03-17T09:40:53;100362.03;;;12.05;50.69
47726;BME280;33483;48.294;16.388;2024-03-17T09:43:20;100354.59;;;12.48;50.71
47726;BME280;33483;48.294;16.388;2024-03-17T09:45:47;100350.84;;;12.88;49.13
47726;BME280;33483;48.294;16.388;2024-03-17T09:48:14;100354.66;;;12.85;49.78
47726;BME280;33483;48.294;16.388;2024-03-17T09:50:41;100349.84;;;12.86;48.56
47726;BME280;33483;48.294;16.388;2024-03-17T09:53:09;100348.88;;;12.59;48.68
47726;BME280;33483;48.294;16.388;2024-03-17T09:55:41;100343.88;;;12.76;49.03
47726;BME280;33483;48.294;16.388;2024-03-17T09:58:10;100343.03;;;12.63;48.78
47726;BME280;33483;48.294;16.388;2024-03-17T10:00:41;100348.78;;;12.46;48.56
47726;BME280;33483;48.294;16.388;2024-03-17T10:03:07;100338.69;;;12.19;49.54
47726;BME280;33483;48.294;16.388;2024-03-17T10:05:34;100344.88;;;11.77;49.03
47726;BME280;33483;48.294;16.388;2024-03-17T10:08:00;100331.59;;;11.53;49.25
47726;BME280;33483;48.294;16.388;2024-03-17T10:10:26;100335.09;;;11.65;49.94
47726;BME280;33483;48.294;16.388;2024-03-17T10:12:54;100326.88;;;12.37;49.46
47726;BME280;33483;48.294;16.388;2024-03-17T10:15:21;100335.03;;;12.29;48.58
47726;BME280;33483;48.294;16.388;2024-03-17T10:17:48;100343.06;;;12.09;47.81
47726;BME280;33483;48.294;16.388;2024-03-17T10:23:03;100323.94;;;11.70;49.38
47726;BME280;33483;48.294;16.388;2024-03-17T10:25:28;100315.72;;;11.89;49.72
47726;BME280;33483;48.294;16.388;2024-03-17T10:27:55;100319.28;;;11.84;49.94
47726;BME280;33483;48.294;16.388;2024-03-17T10:30:23;100314.41;;;11.95;49.94
47726;BME280;33483;48.294;16.388;2024-03-17T10:32:53;100315.16;;;11.96;48.96
47726;BME280;33483;48.294;16.388;2024-03-17T10:37:59;100317.41;;;11.68;49.32
47726;BME280;33483;48.294;16.388;2024-03-17T10:40:26;100315.31;;;11.74;49.77
47726;BME280;33483;48.294;16.388;2024-03-17T10:42:53;100300.25;;;12.23;49.25
47726;BME280;33483;48.294;16.388;2024-03-17T10:45:19;100296.59;;;12.58;49.54
47726;BME280;33483;48.294;16.388;2024-03-17T10:47:48;100294.16;;;12.48;46.84
47726;BME280;33483;48.294;16.388;2024-03-17T10:50:16;100293.84;;;12.52;47.18
47726;BME280;33483;48.294;16.388;2024-03-17T10:52:44;100294.28;;;12.80;47.18
47726;BME280;33483;48.294;16.388;2024-03-17T10:55:23;100293.63;;;12.74;47.83
47726;BME280;33483;48.294;16.388;2024-03-17T10:57:55;100295.63;;;12.55;47.32
47726;BME280;33483;48.294;16.388;2024-03-17T11:00:24;100292.69;;;12.66;47.65
47726;BME280;33483;48.294;16.388;2024-03-17T11:02:55;100291.22;;;12.41;47.66
47726;BME280;33483;48.294;16.388;2024-03-17T11:05:28;100283.69;;;12.12;49.28
47726;BME280;33483;48.294;16.388;2024-03-17T11:07:59;100286.28;;;12.04;48.21
47726;BME280;33483;48.294;16.388;2024-03-17T11:10:35;100276.50;;;12.46;47.55
47726;BME280;33483;48.294;16.388;2024-03-17T11:13:03;100272.25;;;12.64;47.22
47726;BME280;33483;48.294;16.388;2024-03-17T11:20:30;100269.03;;;12.78;47.58
47726;BME280;33483;48.294;16.388;2024-03-17T11:22:59;100268.06;;;12.76;47.10
47726;BME280;33483;48.294;16.388;2024-03-17T11:27:52;100263.91;;;13.01;46.33
47726;BME280;33483;48.294;16.388;2024-03-17T11:33:03;100251.19;;;12.87;46.04
47726;BME280;33483;48.294;16.388;2024-03-17T11:35:30;100251.13;;;12.55;46.29
47726;BME280;33483;48.294;16.388;2024-03-17T11:37:56;100253.69;;;12.53;45.82
47726;BME280;33483;48.294;16.388;2024-03-17T11:40:26;100254.22;;;12.89;47.91
47726;BME280;33483;48.294;16.388;2024-03-17T11:43:02;100246.72;;;13.02;45.97
47726;BME280;33483;48.294;16.388;2024-03-17T11:45:31;100247.94;;;13.07;45.33
47726;BME280;33483;48.294;16.388;2024-03-17T11:47:57;100239.94;;;13.16;46.40
47726;BME280;33483;48.294;16.388;2024-03-17T11:50:23;100238.88;;;13.01;44.94
47726;BME280;33483;48.294;16.388;2024-03-17T11:52:59;100240.84;;;13.24;46.92
47726;BME280;33483;48.294;16.388;2024-03-17T11:55:28;100238.00;;;13.11;45.14
47726;BME280;33483;48.294;16.388;2024-03-17T11:57:56;100222.72;;;13.18;45.13
47726;BME280;33483;48.294;16.388;2024-03-17T12:00:23;100222.44;;;13.21;44.39
47726;BME280;33483;48.294;16.388;2024-03-17T12:02:50;100227.38;;;12.91;45.52
47726;BME280;33483;48.294;16.388;2024-03-17T12:05:16;100215.03;;;12.87;45.32
47726;BME280;33483;48.294;16.388;2024-03-17T12:07:42;100211.06;;;12.64;45.15
47726;BME280;33483;48.294;16.388;2024-03-17T12:10:12;100209.28;;;13.03;45.13
47726;BME280;33483;48.294;16.388;2024-03-17T12:12:46;100207.81;;;13.15;44.94
47726;BME280;33483;48.294;16.388;2024-03-17T12:15:19;100202.63;;;13.25;44.30
47726;BME280;33483;48.294;16.388;2024-03-17T12:17:46;100197.31;;;13.40;43.95
47726;BME280;33483;48.294;16.388;2024-03-17T12:20:19;100194.09;;;13.36;45.16
47726;BME280;33483;48.294;16.388;2024-03-17T12:22:45;100189.03;;;13.21;44.59
47726;BME280;33483;48.294;16.388;2024-03-17T12:25:16;100186.25;;;13.21;46.06
47726;BME280;33483;48.294;16.388;2024-03-17T12:27:43;100172.47;;;13.42;46.71
47726;BME280;33483;48.294;16.388;2024-03-17T12:30:10;100169.06;;;13.62;46.40
47726;BME280;33483;48.294;16.388;2024-03-17T12:32:36;100179.50;;;13.75;44.13
47726;BME280;33483;48.294;16.388;2024-03-17T12:35:09;100179.91;;;13.52;44.61
47726;BME280;33483;48.294;16.388;2024-03-17T12:37:38;100168.78;;;13.79;45.83
47726;BME280;33483;48.294;16.388;2024-03-17T12:40:10;100172.09;;;13.64;44.79
47726;BME280;33483;48.294;16.388;2024-03-17T12:42:47;100172.00;;;13.83;44.81
47726;BME280;33483;48.294;16.388;2024-03-17T12:45:13;100167.06;;;13.63;44.98
47726;BME280;33483;48.294;16.388;2024-03-17T12:47:39;100164.72;;;13.67;44.84
47726;BME280;33483;48.294;16.388;2024-03-17T12:50:10;100162.03;;;13.61;43.95
47726;BME280;33483;48.294;16.388;2024-03-17T12:52:39;100158.66;;;13.49;45.08
47726;BME280;33483;48.294;16.388;2024-03-17T12:55:09;100152.47;;;13.43;45.08
47726;BME280;33483;48.294;16.388;2024-03-17T13:00:45;100153.25;;;13.25;45.52
47726;BME280;33483;48.294;16.388;2024-03-17T13:03:21;100145.81;;;13.33;45.53